createdAt,value
2018-10-18T00:00:17.461Z,14.20
2018-10-18T00:01:17.357Z,14.30
2018-10-18T00:02:17.431Z,14.36
2018-10-18T00:03:17.417Z,14.33
2018-10-18T00:04:17.370Z,14.29
2018-10-18T00:05:17.341Z,14.33
2018-10-18T00:06:17.455Z,14.36
2018-10-18T00:07:17.364Z,14.35
2018-10-18T00:08:17.473Z,14.26
2018-10-18T00:09:17.358Z,14.28
2018-10-18T00:10:17.338Z,14.20
2018-10-18T00:11:17.360Z,14.17
2018-10-18T00:12:17.378Z,14.23
2018-10-18T00:13:17.361Z,14.22
2018-10-18T00:14:17.399Z,14.25
2018-10-18T00:15:17.348Z,14.18
2018-10-18T00:16:17.359Z,14.20
2018-10-18T00:17:17.364Z,14.11
2018-10-18T00:18:17.386Z,14.18
2018-10-18T00:19:17.348Z,14.17
2018-10-18T00:20:17.353Z,14.14
2018-10-18T00:21:17.334Z,14.11
2018-10-18T00:22:17.334Z,14.12
2018-10-18T00:23:17.345Z,14.17
2018-10-18T00:24:17.471Z,14.14
2018-10-18T00:25:17.353Z,14.14
2018-10-18T00:26:17.390Z,14.14
2018-10-18T00:27:17.350Z,14.18
2018-10-18T00:28:17.359Z,14.18
2018-10-18T00:29:17.348Z,14.15
2018-10-18T00:30:17.500Z,14.08
2018-10-18T00:31:17.363Z,14.15
2018-10-18T00:32:17.428Z,14.12
2018-10-18T00:33:17.543Z,14.10
2018-10-18T00:34:17.352Z,14.15
2018-10-18T00:35:17.331Z,14.03
2018-10-18T00:36:17.471Z,14.11
2018-10-18T00:37:17.354Z,14.12
2018-10-18T00:38:17.348Z,14.12
2018-10-18T00:39:17.326Z,14.14
2018-10-18T00:40:17.328Z,14.11
2018-10-18T00:41:17.331Z,13.96
2018-10-18T00:42:17.499Z,13.96
2018-10-18T00:43:17.332Z,14.05
2018-10-18T00:44:17.352Z,13.97
2018-10-18T00:45:17.325Z,14.03
2018-10-18T00:46:17.326Z,13.99
2018-10-18T00:47:17.328Z,13.99
2018-10-18T00:48:17.360Z,13.93
2018-10-18T00:49:17.332Z,13.99
2018-10-18T00:50:17.406Z,13.95
2018-10-18T00:51:17.322Z,13.96
2018-10-18T00:52:17.320Z,13.89
2018-10-18T00:53:17.533Z,13.96
2018-10-18T00:54:17.349Z,13.97
2018-10-18T00:55:17.317Z,13.92
2018-10-18T00:56:17.415Z,13.95
2018-10-18T00:57:17.327Z,13.92
2018-10-18T00:58:17.328Z,13.99
2018-10-18T00:59:17.517Z,13.93
2018-10-18T01:00:17.457Z,13.93
2018-10-18T01:01:17.529Z,13.95
2018-10-18T01:02:17.422Z,13.97
2018-10-18T01:03:17.317Z,13.93
2018-10-18T01:04:17.312Z,13.93
2018-10-18T01:05:17.321Z,13.97
2018-10-18T01:06:17.430Z,13.95
2018-10-18T01:07:17.324Z,13.93
2018-10-18T01:08:17.437Z,13.89
2018-10-18T01:09:17.317Z,13.92
2018-10-18T01:10:17.323Z,13.96
2018-10-18T01:11:17.511Z,13.92
2018-10-18T01:12:17.391Z,13.97
2018-10-18T01:13:17.308Z,13.92
2018-10-18T01:14:17.368Z,13.92
2018-10-18T01:15:17.509Z,13.89
2018-10-18T01:16:17.304Z,13.87
2018-10-18T01:17:17.303Z,13.90
2018-10-18T01:18:17.389Z,13.85
2018-10-18T01:19:17.302Z,13.87
2018-10-18T01:20:17.379Z,13.93
2018-10-18T01:21:17.304Z,13.95
2018-10-18T01:22:17.304Z,13.95
2018-10-18T01:23:17.311Z,13.90
2018-10-18T01:24:17.421Z,13.97
2018-10-18T01:25:17.316Z,13.90
2018-10-18T01:26:17.396Z,13.95
2018-10-18T01:27:17.298Z,13.93
2018-10-18T01:28:17.322Z,13.89
2018-10-18T01:29:17.509Z,13.86
2018-10-18T01:30:17.297Z,13.78
2018-10-18T01:31:17.296Z,13.86
2018-10-18T01:32:17.331Z,13.97
2018-10-18T01:33:17.294Z,13.93
2018-10-18T01:34:17.293Z,13.89
2018-10-18T01:35:17.305Z,13.92
2018-10-18T01:36:17.429Z,13.90
2018-10-18T01:37:17.306Z,13.93
2018-10-18T01:38:17.468Z,13.86
2018-10-18T01:39:17.291Z,13.93
2018-10-18T01:40:17.291Z,13.96
2018-10-18T01:41:17.294Z,13.90
2018-10-18T01:42:17.347Z,13.95
2018-10-18T01:43:17.291Z,13.96
2018-10-18T01:44:17.395Z,13.97
2018-10-18T01:45:17.296Z,13.95
2018-10-18T01:46:17.310Z,13.97
2018-10-18T01:47:17.296Z,13.97
2018-10-18T01:48:17.405Z,14.04
2018-10-18T01:49:17.293Z,14.08
2018-10-18T01:50:17.454Z,14.08
2018-10-18T01:51:17.286Z,14.12
2018-10-18T01:52:17.305Z,14.14
2018-10-18T01:53:17.282Z,14.04
2018-10-18T01:54:17.613Z,14.11
2018-10-18T01:55:17.283Z,14.10
2018-10-18T01:56:17.361Z,14.08
2018-10-18T01:57:17.284Z,14.07
2018-10-18T01:58:17.278Z,14.12
2018-10-18T01:59:17.278Z,14.14
2018-10-18T02:00:17.433Z,14.10
2018-10-18T02:01:17.278Z,14.18
2018-10-18T02:02:17.455Z,14.10
2018-10-18T02:03:17.276Z,14.12
2018-10-18T02:04:17.277Z,14.15
2018-10-18T02:05:17.274Z,14.14
2018-10-18T02:06:17.421Z,14.18
2018-10-18T02:07:17.286Z,14.12
2018-10-18T02:08:17.430Z,14.12
2018-10-18T02:09:17.270Z,14.11
2018-10-18T02:10:17.288Z,14.12
2018-10-18T02:11:17.270Z,14.05
2018-10-18T02:12:17.395Z,14.08
2018-10-18T02:13:17.300Z,14.17
2018-10-18T02:14:17.268Z,14.07
2018-10-18T02:15:17.270Z,14.08
2018-10-18T02:16:17.277Z,14.08
2018-10-18T02:17:17.276Z,14.12
2018-10-18T02:18:17.450Z,14.12
2018-10-18T02:19:17.366Z,14.15
2018-10-18T02:20:17.281Z,14.08
2018-10-18T02:21:17.263Z,14.11
2018-10-18T02:22:17.274Z,14.04
2018-10-18T02:23:17.262Z,14.12
2018-10-18T02:24:17.368Z,14.11
2018-10-18T02:25:17.407Z,14.08
2018-10-18T02:26:17.275Z,14.08
2018-10-18T02:27:17.270Z,14.11
2018-10-18T02:28:17.476Z,14.12
2018-10-18T02:29:17.257Z,14.03
2018-10-18T02:30:17.416Z,14.12
2018-10-18T02:31:17.282Z,14.15
2018-10-18T02:32:17.287Z,14.10
2018-10-18T02:33:17.255Z,14.10
2018-10-18T02:34:17.265Z,14.17
2018-10-18T02:35:17.263Z,14.15
2018-10-18T02:36:17.283Z,14.12
2018-10-18T02:37:17.252Z,14.12
2018-10-18T02:38:17.251Z,14.15
2018-10-18T02:39:17.261Z,14.22
2018-10-18T02:40:17.266Z,14.26
2018-10-18T02:41:17.251Z,14.18
2018-10-18T02:42:17.289Z,14.22
2018-10-18T02:43:17.262Z,14.22
2018-10-18T02:44:17.246Z,14.32
2018-10-18T02:45:17.253Z,14.33
2018-10-18T02:46:17.257Z,14.18
2018-10-18T02:47:17.245Z,14.29
2018-10-18T02:48:17.343Z,14.20
2018-10-18T02:49:17.245Z,14.20
2018-10-18T02:50:17.449Z,14.23
2018-10-18T02:51:17.241Z,14.20
2018-10-18T02:52:17.245Z,14.23
2018-10-18T02:53:17.267Z,14.30
2018-10-18T02:54:17.270Z,14.37
2018-10-18T02:55:17.238Z,14.28
2018-10-18T02:56:17.239Z,14.40
2018-10-18T02:57:17.236Z,14.32
2018-10-18T02:58:17.237Z,14.35
2018-10-18T02:59:17.248Z,14.32
2018-10-18T03:00:17.299Z,14.47
2018-10-18T03:01:17.438Z,14.43
2018-10-18T03:02:17.242Z,14.41
2018-10-18T03:03:17.243Z,14.45
2018-10-18T03:04:17.236Z,14.37
2018-10-18T03:05:17.241Z,14.54
2018-10-18T03:06:17.260Z,14.51
2018-10-18T03:07:17.241Z,14.53
2018-10-18T03:08:17.242Z,14.48
2018-10-18T03:09:17.228Z,14.51
2018-10-18T03:10:17.230Z,14.48
2018-10-18T03:11:17.227Z,14.54
2018-10-18T03:12:17.256Z,14.48
2018-10-18T03:13:17.225Z,14.53
2018-10-18T03:14:17.427Z,14.53
2018-10-18T03:15:17.222Z,14.55
2018-10-18T03:16:17.234Z,14.51
2018-10-18T03:17:17.237Z,14.58
2018-10-18T03:18:17.290Z,14.62
2018-10-18T03:19:17.438Z,14.60
2018-10-18T03:20:17.220Z,14.55
2018-10-18T03:21:17.222Z,14.60
2018-10-18T03:22:17.218Z,14.58
2018-10-18T03:23:17.217Z,14.63
2018-10-18T03:24:17.274Z,14.60
2018-10-18T03:25:17.218Z,14.50
2018-10-18T03:26:17.218Z,14.53
2018-10-18T03:27:17.425Z,14.53
2018-10-18T03:28:17.231Z,14.59
2018-10-18T03:29:17.213Z,14.58
2018-10-18T03:30:17.347Z,14.60
2018-10-18T03:31:17.230Z,14.65
2018-10-18T03:32:17.229Z,14.62
2018-10-18T03:33:17.213Z,14.65
2018-10-18T03:34:17.251Z,14.69
2018-10-18T03:35:17.227Z,14.65
2018-10-18T03:36:17.271Z,14.66
2018-10-18T03:37:17.221Z,14.65
2018-10-18T03:38:17.210Z,14.72
2018-10-18T03:39:17.210Z,14.68
2018-10-18T03:40:17.222Z,14.68
2018-10-18T03:41:17.268Z,14.66
2018-10-18T03:42:17.276Z,14.65
2018-10-18T03:43:17.223Z,14.70
2018-10-18T03:44:17.206Z,14.63
2018-10-18T03:45:17.230Z,14.65
2018-10-18T03:46:17.240Z,14.60
2018-10-18T03:47:17.216Z,14.54
2018-10-18T03:48:17.254Z,14.54
2018-10-18T03:49:17.218Z,14.54
2018-10-18T03:50:17.232Z,14.48
2018-10-18T03:51:17.421Z,14.50
2018-10-18T03:52:17.255Z,14.47
2018-10-18T03:53:17.205Z,14.48
2018-10-18T03:54:17.293Z,14.48
2018-10-18T03:55:17.201Z,14.40
2018-10-18T03:56:17.216Z,14.37
2018-10-18T03:57:17.200Z,14.41
2018-10-18T03:58:17.212Z,14.48
2018-10-18T03:59:17.202Z,14.47
2018-10-18T04:00:17.286Z,14.28
2018-10-18T04:01:17.202Z,14.40
2018-10-18T04:02:17.199Z,14.30
2018-10-18T04:03:17.211Z,14.23
2018-10-18T04:04:17.201Z,14.22
2018-10-18T04:05:17.198Z,14.23
2018-10-18T04:06:17.400Z,14.23
2018-10-18T04:07:17.213Z,14.25
2018-10-18T04:08:17.199Z,14.10
2018-10-18T04:09:17.198Z,14.17
2018-10-18T04:10:17.195Z,14.12
2018-10-18T04:11:17.206Z,14.22
2018-10-18T04:12:17.328Z,14.22
2018-10-18T04:13:17.299Z,14.11
2018-10-18T04:14:17.209Z,14.17
2018-10-18T04:15:17.194Z,14.15
2018-10-18T04:16:17.208Z,14.12
2018-10-18T04:17:17.210Z,14.12
2018-10-18T04:18:17.217Z,14.14
2018-10-18T04:19:17.192Z,14.05
2018-10-18T04:20:17.193Z,14.03
2018-10-18T04:21:17.193Z,14.04
2018-10-18T04:22:17.215Z,14.03
2018-10-18T04:23:17.207Z,14.03
2018-10-18T04:24:17.359Z,14.05
2018-10-18T04:25:17.224Z,14.04
2018-10-18T04:26:17.213Z,14.07
2018-10-18T04:27:17.213Z,14.04
2018-10-18T04:28:17.391Z,14.03
2018-10-18T04:29:17.189Z,14.03
2018-10-18T04:30:17.267Z,13.99
2018-10-18T04:31:17.212Z,14.04
2018-10-18T04:32:17.206Z,14.03
2018-10-18T04:33:17.197Z,13.95
2018-10-18T04:34:17.185Z,13.99
2018-10-18T04:35:17.218Z,13.96
2018-10-18T04:36:17.279Z,14.07
2018-10-18T04:37:17.239Z,13.90
2018-10-18T04:38:17.181Z,13.93
2018-10-18T04:39:17.185Z,13.90
2018-10-18T04:40:17.196Z,13.99
2018-10-18T04:41:17.210Z,13.87
2018-10-18T04:42:17.263Z,13.87
2018-10-18T04:43:17.182Z,13.87
2018-10-18T04:44:17.193Z,13.92
2018-10-18T04:45:17.194Z,13.89
2018-10-18T04:46:17.381Z,13.90
2018-10-18T04:47:17.205Z,13.95
2018-10-18T04:48:17.235Z,13.95
2018-10-18T04:49:17.192Z,13.95
2018-10-18T04:50:17.187Z,13.93
2018-10-18T04:51:17.176Z,13.92
2018-10-18T04:52:17.174Z,13.89
2018-10-18T04:53:17.188Z,13.86
2018-10-18T04:54:17.185Z,13.93
2018-10-18T04:55:17.317Z,13.85
2018-10-18T04:56:17.173Z,13.95
2018-10-18T04:57:17.173Z,13.93
2018-10-18T04:58:17.173Z,13.89
2018-10-18T04:59:17.176Z,13.89
2018-10-18T05:00:17.170Z,13.90
2018-10-18T05:01:17.348Z,13.90
2018-10-18T05:02:17.172Z,13.97
2018-10-18T05:03:17.176Z,13.93
2018-10-18T05:04:17.183Z,13.92
2018-10-18T05:05:17.169Z,13.92
2018-10-18T05:06:17.165Z,13.93
2018-10-18T05:07:17.310Z,13.85
2018-10-18T05:08:17.175Z,14.03
2018-10-18T05:09:17.165Z,14.03
2018-10-18T05:10:17.167Z,13.96
2018-10-18T05:11:17.178Z,13.93
2018-10-18T05:12:17.166Z,13.95
2018-10-18T05:13:17.261Z,13.87
2018-10-18T05:14:17.163Z,13.95
2018-10-18T05:15:17.162Z,13.93
2018-10-18T05:16:17.159Z,13.99
2018-10-18T05:17:17.160Z,13.90
2018-10-18T05:18:17.161Z,13.93
2018-10-18T05:19:17.286Z,13.96
2018-10-18T05:20:17.156Z,13.93
2018-10-18T05:21:17.162Z,13.90
2018-10-18T05:22:17.215Z,13.90
2018-10-18T05:23:17.169Z,13.99
2018-10-18T05:24:17.152Z,13.92
2018-10-18T05:25:17.256Z,13.95
2018-10-18T05:26:17.152Z,13.96
2018-10-18T05:27:17.154Z,13.97
2018-10-18T05:28:17.150Z,14.04
2018-10-18T05:29:17.161Z,13.95
2018-10-18T05:30:17.178Z,13.99
2018-10-18T05:31:17.192Z,14.00
2018-10-18T05:32:17.148Z,14.03
2018-10-18T05:33:17.157Z,13.93
2018-10-18T05:34:17.147Z,13.89
2018-10-18T05:35:17.150Z,13.99
2018-10-18T05:36:17.164Z,13.92
2018-10-18T05:37:17.250Z,13.90
2018-10-18T05:38:17.144Z,13.85
2018-10-18T05:39:17.149Z,13.85
2018-10-18T05:40:17.158Z,13.78
2018-10-18T05:41:17.204Z,13.79
2018-10-18T05:42:17.144Z,13.78
2018-10-18T05:43:17.325Z,13.68
2018-10-18T05:44:17.163Z,13.68
2018-10-18T05:45:17.143Z,13.81
2018-10-18T05:46:17.141Z,13.79
2018-10-18T05:47:17.201Z,13.81
2018-10-18T05:48:17.154Z,13.78
2018-10-18T05:49:17.216Z,13.78
2018-10-18T05:50:17.154Z,13.85
2018-10-18T05:51:17.342Z,13.78
2018-10-18T05:52:17.138Z,13.78
2018-10-18T05:53:17.258Z,13.79
2018-10-18T05:54:17.253Z,13.86
2018-10-18T05:55:17.238Z,13.75
2018-10-18T05:56:17.142Z,13.75
2018-10-18T05:57:17.355Z,13.90
2018-10-18T05:58:17.337Z,13.78
2018-10-18T05:59:17.135Z,13.83
2018-10-18T06:00:17.269Z,13.89
2018-10-18T06:01:17.274Z,13.78
2018-10-18T06:02:17.136Z,13.79
2018-10-18T06:03:17.133Z,13.79
2018-10-18T06:04:17.132Z,13.89
2018-10-18T06:05:17.142Z,13.86
2018-10-18T06:06:17.132Z,13.86
2018-10-18T06:07:17.232Z,13.90
2018-10-18T06:08:17.150Z,13.78
2018-10-18T06:09:17.132Z,13.81
2018-10-18T06:10:17.260Z,13.90
2018-10-18T06:11:17.334Z,13.87
2018-10-18T06:12:17.128Z,13.86
2018-10-18T06:13:17.316Z,13.77
2018-10-18T06:14:17.135Z,13.79
2018-10-18T06:15:17.126Z,13.79
2018-10-18T06:16:17.126Z,13.85
2018-10-18T06:17:17.139Z,13.87
2018-10-18T06:18:17.125Z,13.87
2018-10-18T06:19:17.291Z,13.92
2018-10-18T06:20:17.134Z,13.92
2018-10-18T06:21:17.132Z,13.95
2018-10-18T06:22:17.134Z,13.99
2018-10-18T06:23:17.215Z,13.93
2018-10-18T06:24:17.134Z,13.93
2018-10-18T06:25:17.249Z,13.92
2018-10-18T06:26:17.129Z,13.92
2018-10-18T06:27:17.121Z,13.92
2018-10-18T06:28:17.136Z,13.89
2018-10-18T06:29:17.138Z,14.03
2018-10-18T06:30:17.132Z,13.93
2018-10-18T06:31:17.118Z,13.99
2018-10-18T06:32:17.116Z,14.00
2018-10-18T06:33:17.126Z,14.10
2018-10-18T06:34:17.142Z,14.08
2018-10-18T06:35:17.128Z,14.14
2018-10-18T06:36:17.129Z,14.15
2018-10-18T06:37:17.195Z,14.25
2018-10-18T06:38:17.128Z,14.14
2018-10-18T06:39:17.241Z,14.17
2018-10-18T06:40:17.128Z,14.18
2018-10-18T06:41:17.239Z,14.23
2018-10-18T06:42:17.123Z,14.22
2018-10-18T06:43:17.263Z,14.36
2018-10-18T06:44:17.125Z,14.35
2018-10-18T06:45:17.109Z,14.28
2018-10-18T06:46:17.106Z,14.33
2018-10-18T06:47:17.181Z,14.33
2018-10-18T06:48:17.107Z,14.32
2018-10-18T06:49:17.197Z,14.47
2018-10-18T06:50:17.126Z,14.47
2018-10-18T06:51:17.108Z,14.41
2018-10-18T06:52:17.131Z,14.40
2018-10-18T06:53:17.119Z,14.43
2018-10-18T06:54:17.240Z,14.47
2018-10-18T06:55:17.216Z,14.43
2018-10-18T06:56:17.104Z,14.35
2018-10-18T06:57:17.102Z,14.32
2018-10-18T06:58:17.101Z,14.37
2018-10-18T06:59:17.102Z,14.40
2018-10-18T07:00:17.177Z,14.32
2018-10-18T07:01:17.305Z,14.45
2018-10-18T07:02:17.123Z,14.37
2018-10-18T07:03:17.110Z,14.35
2018-10-18T07:04:17.113Z,14.37
2018-10-18T07:05:17.103Z,14.47
2018-10-18T07:06:17.221Z,14.47
2018-10-18T07:07:17.098Z,14.35
2018-10-18T07:08:17.109Z,14.32
2018-10-18T07:09:17.301Z,14.47
2018-10-18T07:10:17.099Z,14.37
2018-10-18T07:11:17.105Z,14.33
2018-10-18T07:12:17.228Z,14.47
2018-10-18T07:13:17.095Z,14.37
2018-10-18T07:14:17.104Z,14.47
2018-10-18T07:15:17.099Z,14.35
2018-10-18T07:16:17.094Z,14.40
2018-10-18T07:17:17.092Z,14.35
2018-10-18T07:18:17.253Z,14.37
2018-10-18T07:19:17.092Z,14.37
2018-10-18T07:20:17.312Z,14.50
2018-10-18T07:21:17.090Z,14.43
2018-10-18T07:22:17.092Z,14.51
2018-10-18T07:23:17.091Z,14.54
2018-10-18T07:24:17.207Z,14.53
2018-10-18T07:25:17.132Z,14.60
2018-10-18T07:26:17.104Z,14.69
2018-10-18T07:27:17.089Z,14.78
2018-10-18T07:28:17.298Z,14.81
2018-10-18T07:29:17.306Z,14.85
2018-10-18T07:30:17.229Z,14.78
2018-10-18T07:31:17.100Z,14.79
2018-10-18T07:32:17.117Z,14.85
2018-10-18T07:33:17.112Z,14.91
2018-10-18T07:34:17.101Z,14.89
2018-10-18T07:35:17.102Z,14.96
2018-10-18T07:36:17.153Z,14.86
2018-10-18T07:37:17.107Z,14.91
2018-10-18T07:38:17.299Z,14.97
2018-10-18T07:39:17.083Z,14.99
2018-10-18T07:40:17.099Z,15.03
2018-10-18T07:41:17.135Z,15.00
2018-10-18T07:42:17.173Z,15.03
2018-10-18T07:43:17.089Z,15.06
2018-10-18T07:44:17.090Z,14.99
2018-10-18T07:45:17.098Z,15.03
2018-10-18T07:46:17.084Z,15.04
2018-10-18T07:47:17.115Z,15.07
2018-10-18T07:48:17.239Z,15.04
2018-10-18T07:49:17.093Z,15.15
2018-10-18T07:50:17.084Z,15.10
2018-10-18T07:51:17.082Z,15.11
2018-10-18T07:52:17.105Z,15.15
2018-10-18T07:53:17.158Z,15.09
2018-10-18T07:54:17.146Z,15.07
2018-10-18T07:55:17.089Z,15.17
2018-10-18T07:56:17.078Z,15.17
2018-10-18T07:57:17.090Z,15.19
2018-10-18T07:58:17.080Z,15.18
2018-10-18T07:59:17.081Z,15.09
2018-10-18T08:00:17.409Z,15.15
2018-10-18T08:01:17.075Z,15.22
2018-10-18T08:02:17.081Z,15.19
2018-10-18T08:03:17.293Z,15.31
2018-10-18T08:04:17.090Z,15.28
2018-10-18T08:05:17.085Z,15.29
2018-10-18T08:06:17.074Z,15.25
2018-10-18T08:07:17.234Z,15.29
2018-10-18T08:08:17.088Z,15.33
2018-10-18T08:09:17.074Z,15.29
2018-10-18T08:10:17.101Z,15.39
2018-10-18T08:11:17.087Z,15.43
2018-10-18T08:12:17.087Z,15.43
2018-10-18T08:13:17.122Z,15.40
2018-10-18T08:14:17.091Z,15.40
2018-10-18T08:15:17.085Z,15.37
2018-10-18T08:16:17.089Z,15.37
2018-10-18T08:17:17.522Z,15.37
2018-10-18T08:18:17.078Z,15.36
2018-10-18T08:19:17.435Z,15.29
2018-10-18T08:20:17.085Z,15.37
2018-10-18T08:21:17.069Z,15.35
2018-10-18T08:22:17.074Z,15.42
2018-10-18T08:23:17.100Z,15.35
2018-10-18T08:24:17.096Z,15.36
2018-10-18T08:25:17.224Z,15.40
2018-10-18T08:26:17.082Z,15.29
2018-10-18T08:27:17.071Z,15.28
2018-10-18T08:28:17.082Z,15.35
2018-10-18T08:29:17.069Z,15.35
2018-10-18T08:30:17.273Z,15.37
2018-10-18T08:31:17.249Z,15.33
2018-10-18T08:32:17.073Z,15.40
2018-10-18T08:33:17.069Z,15.35
2018-10-18T08:34:17.089Z,15.37
2018-10-18T08:35:17.078Z,15.40
2018-10-18T08:36:17.089Z,15.37
2018-10-18T08:37:17.196Z,15.37
2018-10-18T08:38:17.219Z,15.42
2018-10-18T08:39:17.289Z,15.40
2018-10-18T08:40:17.082Z,15.42
2018-10-18T08:41:17.065Z,15.42
2018-10-18T08:42:17.075Z,15.39
2018-10-18T08:43:17.134Z,15.47
2018-10-18T08:44:17.069Z,15.43
2018-10-18T08:45:17.063Z,15.49
2018-10-18T08:46:17.078Z,15.43
2018-10-18T08:47:17.075Z,15.44
2018-10-18T08:48:17.092Z,15.44
2018-10-18T08:49:17.154Z,15.43
2018-10-18T08:50:17.061Z,15.39
2018-10-18T08:51:17.063Z,15.37
2018-10-18T08:52:17.072Z,15.42
2018-10-18T08:53:17.065Z,15.39
2018-10-18T08:54:17.062Z,15.39
2018-10-18T08:55:17.141Z,15.31
2018-10-18T08:56:17.077Z,15.44
2018-10-18T08:57:17.059Z,15.42
2018-10-18T08:58:17.073Z,15.29
2018-10-18T08:59:17.159Z,15.40
2018-10-18T09:00:17.072Z,15.42
2018-10-18T09:01:17.220Z,15.42
2018-10-18T09:02:17.074Z,15.33
2018-10-18T09:03:17.058Z,15.36
2018-10-18T09:04:17.059Z,15.35
2018-10-18T09:05:17.059Z,15.37
2018-10-18T09:06:17.074Z,15.19
2018-10-18T09:07:17.160Z,15.25
2018-10-18T09:08:17.058Z,15.22
2018-10-18T09:09:17.161Z,15.29
2018-10-18T09:10:17.069Z,15.14
2018-10-18T09:11:17.070Z,15.14
2018-10-18T09:12:17.057Z,15.15
2018-10-18T09:13:17.155Z,15.18
2018-10-18T09:14:17.059Z,15.17
2018-10-18T09:15:17.085Z,15.17
2018-10-18T09:16:17.066Z,15.21
2018-10-18T09:17:17.064Z,15.07
2018-10-18T09:18:17.056Z,15.19
2018-10-18T09:19:17.104Z,15.21
2018-10-18T09:20:17.068Z,15.27
2018-10-18T09:21:17.075Z,15.22
2018-10-18T09:22:17.064Z,15.33
2018-10-18T09:23:17.052Z,15.35
2018-10-18T09:24:17.068Z,15.39
2018-10-18T09:25:17.223Z,15.37
2018-10-18T09:26:17.052Z,15.39
2018-10-18T09:27:17.060Z,15.37
2018-10-18T09:28:17.048Z,15.43
2018-10-18T09:29:17.053Z,15.46
2018-10-18T09:30:17.099Z,15.49
2018-10-18T09:31:17.388Z,15.40
2018-10-18T09:32:17.060Z,15.47
2018-10-18T09:33:17.053Z,15.46
2018-10-18T09:34:17.051Z,15.57
2018-10-18T09:35:17.062Z,15.55
2018-10-18T09:36:17.049Z,15.67
2018-10-18T09:37:17.121Z,15.64
2018-10-18T09:38:17.108Z,15.67
2018-10-18T09:39:17.060Z,15.68
2018-10-18T09:40:17.059Z,15.68
2018-10-18T09:41:17.055Z,15.61
2018-10-18T09:42:17.048Z,15.68
2018-10-18T09:43:17.092Z,15.64
2018-10-18T09:44:17.133Z,15.75
2018-10-18T09:45:17.051Z,15.73
2018-10-18T09:46:17.056Z,15.80
2018-10-18T09:47:17.056Z,15.77
2018-10-18T09:48:17.046Z,15.92
2018-10-18T09:49:17.172Z,15.94
2018-10-18T09:50:17.068Z,15.95
2018-10-18T09:51:17.248Z,16.05
2018-10-18T09:52:17.057Z,16.10
2018-10-18T09:53:17.046Z,16.02
2018-10-18T09:54:17.045Z,16.13
2018-10-18T09:55:17.191Z,16.09
2018-10-18T09:56:17.119Z,16.09
2018-10-18T09:57:17.044Z,16.01
2018-10-18T09:58:17.057Z,15.98
2018-10-18T09:59:17.062Z,16.01
2018-10-18T10:00:17.053Z,15.98
2018-10-18T10:01:17.142Z,15.98
2018-10-18T10:02:17.045Z,15.97
2018-10-18T10:03:17.069Z,15.94
2018-10-18T10:04:17.225Z,15.98
2018-10-18T10:05:17.077Z,16.10
2018-10-18T10:06:17.056Z,16.10
2018-10-18T10:07:17.138Z,16.20
2018-10-18T10:08:17.045Z,16.21
2018-10-18T10:09:17.044Z,16.21
2018-10-18T10:10:17.057Z,16.16
2018-10-18T10:11:17.093Z,16.24
2018-10-18T10:12:17.054Z,16.17
2018-10-18T10:13:17.146Z,16.17
2018-10-18T10:14:17.054Z,16.23
2018-10-18T10:15:17.046Z,16.28
2018-10-18T10:16:17.046Z,16.32
2018-10-18T10:17:17.166Z,16.33
2018-10-18T10:18:17.157Z,16.29
2018-10-18T10:19:17.125Z,16.35
2018-10-18T10:20:17.047Z,16.32
2018-10-18T10:21:17.046Z,16.31
2018-10-18T10:22:17.056Z,16.33
2018-10-18T10:23:17.041Z,16.43
2018-10-18T10:24:17.055Z,16.29
2018-10-18T10:25:17.080Z,16.36
2018-10-18T10:26:17.046Z,16.42
2018-10-18T10:27:17.042Z,16.39
2018-10-18T10:28:17.248Z,16.32
2018-10-18T10:29:17.044Z,16.21
2018-10-18T10:30:17.152Z,16.29
2018-10-18T10:31:17.311Z,16.15
2018-10-18T10:32:17.044Z,16.15
2018-10-18T10:33:17.063Z,16.13
2018-10-18T10:34:17.076Z,16.08
2018-10-18T10:35:17.118Z,16.09
2018-10-18T10:36:17.056Z,16.08
2018-10-18T10:37:17.047Z,15.98
2018-10-18T10:38:17.044Z,16.13
2018-10-18T10:39:17.084Z,16.04
2018-10-18T10:40:17.102Z,16.08
2018-10-18T10:41:17.141Z,16.17
2018-10-18T10:42:17.171Z,16.20
2018-10-18T10:43:17.085Z,16.20
2018-10-18T10:44:17.098Z,16.32
2018-10-18T10:45:17.177Z,16.28
2018-10-18T10:46:17.065Z,16.23
2018-10-18T10:47:17.075Z,16.39
2018-10-18T10:48:17.211Z,16.42
2018-10-18T10:49:17.086Z,16.42
2018-10-18T10:50:17.160Z,16.41
2018-10-18T10:51:17.172Z,16.49
2018-10-18T10:52:17.165Z,16.47
2018-10-18T10:53:17.065Z,16.53
2018-10-18T10:54:17.141Z,16.56
2018-10-18T10:55:17.045Z,16.41
2018-10-18T10:56:17.132Z,16.54
2018-10-18T10:57:17.188Z,16.64
2018-10-18T10:58:17.149Z,16.61
2018-10-18T10:59:17.060Z,16.57
2018-10-18T11:00:17.143Z,16.58
2018-10-18T11:01:17.066Z,16.61
2018-10-18T11:02:17.440Z,16.65
2018-10-18T11:03:17.156Z,16.66
2018-10-18T11:04:17.050Z,16.72
2018-10-18T11:05:17.051Z,16.69
2018-10-18T11:06:17.176Z,16.84
2018-10-18T11:07:17.046Z,16.83
2018-10-18T11:08:17.145Z,16.96
2018-10-18T11:09:17.092Z,16.90
2018-10-18T11:10:17.063Z,16.97
2018-10-18T11:11:17.046Z,16.87
2018-10-18T11:12:17.112Z,17.01
2018-10-18T11:13:17.064Z,16.87
2018-10-18T11:14:17.140Z,16.90
2018-10-18T11:15:17.133Z,17.01
2018-10-18T11:16:17.053Z,16.94
2018-10-18T11:17:17.230Z,17.01
2018-10-18T11:18:17.192Z,17.01
2018-10-18T11:19:17.060Z,17.19
2018-10-18T11:20:17.122Z,17.24
2018-10-18T11:21:17.157Z,17.26
2018-10-18T11:22:17.063Z,17.15
2018-10-18T11:23:17.054Z,17.01
2018-10-18T11:24:17.107Z,17.09
2018-10-18T11:25:17.066Z,16.99
2018-10-18T11:26:17.206Z,17.06
2018-10-18T11:27:17.162Z,16.93
2018-10-18T11:28:17.257Z,16.93
2018-10-18T11:29:17.052Z,16.83
2018-10-18T11:30:17.203Z,16.86
2018-10-18T11:31:17.055Z,17.05
2018-10-18T11:32:17.134Z,17.02
2018-10-18T11:33:17.297Z,17.04
2018-10-18T11:34:17.084Z,17.02
2018-10-18T11:35:17.075Z,17.01
2018-10-18T11:36:17.208Z,16.91
2018-10-18T11:37:17.068Z,17.15
2018-10-18T11:38:17.124Z,17.06
2018-10-18T11:39:17.070Z,17.11
2018-10-18T11:40:17.074Z,17.14
2018-10-18T11:41:17.070Z,17.16
2018-10-18T11:42:17.151Z,17.26
2018-10-18T11:43:17.059Z,17.34
2018-10-18T11:44:17.167Z,17.46
2018-10-18T11:45:17.061Z,17.59
2018-10-18T11:46:17.069Z,17.63
2018-10-18T11:47:17.075Z,17.78
2018-10-18T11:48:17.075Z,17.78
2018-10-18T11:49:17.072Z,17.78
2018-10-18T11:50:17.127Z,17.63
2018-10-18T11:51:17.065Z,17.49
2018-10-18T11:52:17.063Z,17.42
2018-10-18T11:53:17.267Z,17.39
2018-10-18T11:54:17.387Z,17.39
2018-10-18T11:55:17.078Z,17.29
2018-10-18T11:56:17.221Z,17.38
2018-10-18T11:57:17.077Z,17.45
2018-10-18T11:58:17.066Z,17.42
2018-10-18T11:59:17.155Z,17.46
2018-10-18T12:00:17.067Z,17.59
2018-10-18T12:01:17.321Z,17.56
2018-10-18T12:02:17.263Z,17.54
2018-10-18T12:03:17.081Z,17.51
2018-10-18T12:04:17.104Z,17.54
2018-10-18T12:05:17.157Z,17.54
2018-10-18T12:06:17.089Z,17.67
2018-10-18T12:07:17.275Z,17.60
2018-10-18T12:08:17.256Z,17.67
2018-10-18T12:09:17.086Z,17.51
2018-10-18T12:10:17.075Z,17.65
2018-10-18T12:11:17.175Z,17.71
2018-10-18T12:12:17.075Z,17.59
2018-10-18T12:13:17.087Z,17.63
2018-10-18T12:14:17.169Z,17.63
2018-10-18T12:15:17.280Z,17.68
2018-10-18T12:16:17.091Z,17.72
2018-10-18T12:17:17.120Z,17.71
2018-10-18T12:18:17.102Z,17.71
2018-10-18T12:19:17.119Z,17.87
2018-10-18T12:20:17.231Z,18.01
2018-10-18T12:21:17.095Z,18.01
2018-10-18T12:22:17.095Z,18.00
2018-10-18T12:23:17.231Z,17.95
2018-10-18T12:24:17.101Z,17.85
2018-10-18T12:25:17.086Z,17.92
2018-10-18T12:26:17.331Z,17.86
2018-10-18T12:27:17.092Z,17.90
2018-10-18T12:28:17.090Z,17.87
2018-10-18T12:29:17.122Z,17.92
2018-10-18T12:30:17.093Z,17.94
2018-10-18T12:31:17.306Z,17.89
2018-10-18T12:32:17.182Z,17.86
2018-10-18T12:33:17.110Z,17.80
2018-10-18T12:34:17.098Z,17.82
2018-10-18T12:35:17.163Z,17.76
2018-10-18T12:36:17.103Z,17.78
2018-10-18T12:37:17.115Z,17.64
2018-10-18T12:38:17.241Z,17.65
2018-10-18T12:39:17.144Z,17.63
2018-10-18T12:40:17.354Z,17.64
2018-10-18T12:41:17.264Z,17.52
2018-10-18T12:42:17.107Z,17.59
2018-10-18T12:43:17.119Z,17.63
2018-10-18T12:44:17.253Z,17.59
2018-10-18T12:45:17.119Z,17.70
2018-10-18T12:46:17.133Z,17.78
2018-10-18T12:47:17.123Z,17.80
2018-10-18T12:48:17.531Z,17.94
2018-10-18T12:49:17.126Z,17.87
2018-10-18T12:50:17.439Z,17.90
2018-10-18T12:51:17.114Z,18.01
2018-10-18T12:52:17.140Z,18.01